createdAt,value
2022-12-09T00:01:14.148Z,-0.50
2022-12-09T00:03:41.918Z,-0.40
2022-12-09T00:06:15.515Z,-0.40
2022-12-09T00:08:43.049Z,-0.40
2022-12-09T00:11:10.184Z,-0.30
2022-12-09T00:13:37.428Z,-0.30
2022-12-09T00:16:09.031Z,-0.30
2022-12-09T00:18:36.767Z,-0.30
2022-12-09T00:21:25.179Z,-0.30
2022-12-09T00:23:54.260Z,-0.30
2022-12-09T00:26:22.793Z,-0.30
2022-12-09T00:28:50.883Z,-0.20
2022-12-09T00:31:21.589Z,-0.20
2022-12-09T00:33:48.693Z,-0.20
2022-12-09T00:36:18.429Z,-0.20
2022-12-09T00:38:45.796Z,-0.20
2022-12-09T00:41:14.163Z,-0.20
2022-12-09T00:43:42.384Z,-0.20
2022-12-09T00:46:10.608Z,-0.10
2022-12-09T00:48:38.692Z,-0.20
2022-12-09T00:51:11.264Z,-0.20
2022-12-09T00:53:39.123Z,-0.20
2022-12-09T00:56:07.015Z,-0.20
2022-12-09T00:58:34.012Z,-0.20
2022-12-09T01:01:01.282Z,-0.10
2022-12-09T01:03:28.449Z,-0.10
2022-12-09T01:05:55.895Z,-0.10
2022-12-09T01:08:24.370Z,-0.10
2022-12-09T01:10:51.328Z,-0.20
2022-12-09T01:13:18.236Z,-0.10
2022-12-09T01:15:45.423Z,-0.10
2022-12-09T01:18:14.229Z,-0.10
2022-12-09T01:20:41.185Z,-0.20
2022-12-09T01:23:08.528Z,-0.20
2022-12-09T01:25:37.590Z,-0.10
2022-12-09T01:28:04.556Z,-0.20
2022-12-09T01:30:31.451Z,-0.10
2022-12-09T01:32:58.376Z,-0.10
2022-12-09T01:35:25.578Z,-0.10
2022-12-09T01:37:52.460Z,-0.10
2022-12-09T01:40:19.647Z,-0.10
2022-12-09T01:42:46.870Z,-0.10
2022-12-09T01:45:23.559Z,0.00
2022-12-09T01:48:05.647Z,-0.10
2022-12-09T01:50:35.566Z,-0.10
2022-12-09T01:53:02.690Z,-0.10
2022-12-09T01:55:29.977Z,-0.10
2022-12-09T01:57:57.052Z,-0.10
2022-12-09T02:00:24.135Z,-0.10
2022-12-09T02:02:52.375Z,-0.10
2022-12-09T02:05:24.426Z,-0.10
2022-12-09T02:07:51.712Z,-0.10
2022-12-09T02:10:19.407Z,-0.10
2022-12-09T02:13:36.580Z,-0.10
2022-12-09T02:16:09.855Z,-0.20
2022-12-09T02:18:52.454Z,-0.20
2022-12-09T02:21:42.252Z,-0.20
2022-12-09T02:24:17.998Z,-0.10
2022-12-09T02:26:51.785Z,-0.20
2022-12-09T02:29:38.968Z,-0.20
2022-12-09T02:32:06.126Z,-0.20
2022-12-09T02:34:35.793Z,-0.20
2022-12-09T02:37:12.033Z,-0.20
2022-12-09T02:39:44.725Z,-0.20
2022-12-09T02:42:17.071Z,-0.20
2022-12-09T02:44:47.556Z,-0.20
2022-12-09T02:47:18.426Z,-0.20
2022-12-09T02:49:50.612Z,-0.10
2022-12-09T02:52:18.916Z,-0.10
2022-12-09T02:54:47.073Z,-0.20
2022-12-09T02:59:48.168Z,-0.20
2022-12-09T03:02:29.236Z,-0.20
2022-12-09T03:05:19.819Z,-0.20
2022-12-09T03:10:31.671Z,-0.20
2022-12-09T03:13:11.816Z,-0.20
2022-12-09T03:15:42.280Z,-0.20
2022-12-09T03:18:13.412Z,-0.20
2022-12-09T03:20:42.971Z,-0.20
2022-12-09T03:23:12.643Z,-0.20
2022-12-09T03:25:48.892Z,-0.20
2022-12-09T03:28:21.394Z,-0.20
2022-12-09T03:30:49.361Z,-0.20
2022-12-09T03:33:20.632Z,-0.20
2022-12-09T03:36:00.773Z,-0.20
2022-12-09T03:38:31.561Z,-0.20
2022-12-09T03:41:05.384Z,-0.20
2022-12-09T03:43:36.077Z,-0.20
2022-12-09T03:46:03.453Z,-0.20
2022-12-09T03:48:31.355Z,-0.20
2022-12-09T03:51:24.400Z,-0.20
2022-12-09T03:54:17.317Z,-0.30
2022-12-09T03:56:49.275Z,-0.30
2022-12-09T03:59:16.907Z,-0.30
2022-12-09T04:01:45.343Z,-0.30
2022-12-09T04:04:13.104Z,-0.30
2022-12-09T04:06:40.106Z,-0.20
2022-12-09T04:09:07.604Z,-0.30
2022-12-09T04:11:35.039Z,-0.20
2022-12-09T04:14:02.014Z,-0.20
2022-12-09T04:16:29.359Z,-0.20
2022-12-09T04:18:56.857Z,-0.20
2022-12-09T04:21:24.008Z,-0.20
2022-12-09T04:23:50.968Z,-0.20
2022-12-09T04:26:21.866Z,-0.10
2022-12-09T04:28:49.486Z,-0.10
2022-12-09T04:31:18.203Z,-0.10
2022-12-09T04:33:46.459Z,-0.10
2022-12-09T04:36:16.642Z,-0.10
2022-12-09T04:38:44.321Z,-0.10
2022-12-09T04:41:11.758Z,-0.10
2022-12-09T04:43:38.934Z,-0.10
2022-12-09T04:46:10.502Z,-0.10
2022-12-09T04:48:38.046Z,-0.10
2022-12-09T04:51:05.008Z,-0.10
2022-12-09T04:53:31.832Z,-0.10
2022-12-09T04:56:00.590Z,-0.20
2022-12-09T04:58:27.797Z,-0.10
2022-12-09T05:00:55.300Z,-0.10
2022-12-09T05:03:22.723Z,-0.10
2022-12-09T05:05:50.069Z,-0.10
2022-12-09T05:08:17.796Z,-0.10
2022-12-09T05:10:49.997Z,-0.20
2022-12-09T05:13:17.289Z,-0.20
2022-12-09T05:15:44.404Z,-0.20
2022-12-09T05:18:11.840Z,-0.20
2022-12-09T05:20:40.649Z,-0.10
2022-12-09T05:23:09.615Z,-0.10
2022-12-09T05:25:37.247Z,-0.10
2022-12-09T05:28:04.558Z,-0.20
2022-12-09T05:30:31.816Z,-0.10
2022-12-09T05:32:59.141Z,-0.20
2022-12-09T05:35:26.231Z,-0.20
2022-12-09T05:37:53.255Z,-0.20
2022-12-09T05:40:20.127Z,-0.20
2022-12-09T05:42:47.349Z,-0.20
2022-12-09T05:45:14.378Z,-0.20
2022-12-09T05:47:41.861Z,-0.20
2022-12-09T05:50:10.323Z,-0.20
2022-12-09T05:52:37.926Z,-0.20
2022-12-09T05:55:07.135Z,-0.20
2022-12-09T05:57:35.123Z,-0.10
2022-12-09T06:00:02.902Z,-0.10
2022-12-09T06:02:31.380Z,-0.20
2022-12-09T06:04:58.713Z,-0.10
2022-12-09T06:07:26.066Z,-0.20
2022-12-09T06:09:53.337Z,-0.10
2022-12-09T06:12:21.148Z,-0.10
2022-12-09T06:14:48.236Z,-0.10
2022-12-09T06:17:15.170Z,-0.10
2022-12-09T06:19:42.464Z,-0.10
2022-12-09T06:22:09.475Z,-0.10
2022-12-09T06:24:36.620Z,-0.10
2022-12-09T06:27:04.072Z,-0.10
2022-12-09T06:29:31.392Z,-0.10
2022-12-09T06:31:58.437Z,-0.10
2022-12-09T06:34:25.653Z,-0.10
2022-12-09T06:36:53.159Z,-0.10
2022-12-09T06:39:20.158Z,-0.20
2022-12-09T06:41:47.294Z,-0.20
2022-12-09T06:44:19.868Z,-0.20
2022-12-09T06:46:50.432Z,-0.20
2022-12-09T06:49:18.078Z,-0.20
2022-12-09T06:51:45.533Z,-0.10
2022-12-09T06:54:13.503Z,-0.20
2022-12-09T06:56:40.522Z,-0.20
2022-12-09T06:59:10.006Z,-0.20
2022-12-09T07:01:37.950Z,-0.20
2022-12-09T07:04:06.738Z,-0.20
2022-12-09T07:06:39.681Z,-0.20
2022-12-09T07:09:10.768Z,-0.20
2022-12-09T07:11:38.656Z,-0.20
2022-12-09T07:14:06.052Z,-0.20
2022-12-09T07:16:33.626Z,-0.20
2022-12-09T07:19:01.168Z,-0.20
2022-12-09T07:21:29.695Z,-0.20
2022-12-09T07:24:00.212Z,-0.20
2022-12-09T07:26:27.393Z,-0.10
2022-12-09T07:28:54.414Z,-0.10
2022-12-09T07:31:25.296Z,-0.10
2022-12-09T07:33:54.459Z,-0.10
2022-12-09T07:36:23.208Z,-0.10
2022-12-09T07:39:21.839Z,-0.10
2022-12-09T07:41:53.876Z,0.00
2022-12-09T07:44:21.082Z,0.00
2022-12-09T07:46:48.091Z,0.00
2022-12-09T07:49:15.982Z,0.00
2022-12-09T07:51:44.003Z,0.00
2022-12-09T07:54:15.794Z,0.00
2022-12-09T07:56:43.565Z,0.00
2022-12-09T07:59:12.333Z,0.10
2022-12-09T08:01:40.113Z,0.10
2022-12-09T08:04:08.156Z,0.10
2022-12-09T08:06:36.229Z,0.10
2022-12-09T08:09:07.157Z,0.10
2022-12-09T08:11:35.054Z,0.20
2022-12-09T08:14:10.818Z,0.20
2022-12-09T08:16:40.169Z,0.20
2022-12-09T08:19:08.175Z,0.20
2022-12-09T08:21:35.316Z,0.30
2022-12-09T08:24:06.046Z,0.30
2022-12-09T08:26:34.508Z,0.30
2022-12-09T08:29:02.133Z,0.40
2022-12-09T08:31:29.999Z,0.40
2022-12-09T08:33:58.639Z,0.40
2022-12-09T08:36:27.585Z,0.50
2022-12-09T08:38:56.188Z,0.40
2022-12-09T08:41:39.097Z,0.50
2022-12-09T08:44:14.831Z,0.50
2022-12-09T08:46:44.566Z,0.50
2022-12-09T08:49:12.821Z,0.40
2022-12-09T08:51:40.619Z,0.40
2022-12-09T08:54:07.763Z,0.40
2022-12-09T08:56:34.989Z,0.40
2022-12-09T08:59:02.997Z,0.40
2022-12-09T09:01:36.093Z,0.50
2022-12-09T09:04:09.577Z,0.50
2022-12-09T09:06:39.349Z,0.50
2022-12-09T09:09:07.915Z,0.50
2022-12-09T09:11:35.487Z,0.50
2022-12-09T09:14:04.924Z,0.50
2022-12-09T09:16:32.379Z,0.50
2022-12-09T09:19:00.471Z,0.60
2022-12-09T09:21:28.471Z,0.60
2022-12-09T09:23:55.597Z,0.70
2022-12-09T09:26:26.146Z,0.70
2022-12-09T09:28:55.712Z,0.70
2022-12-09T09:31:24.132Z,0.70
2022-12-09T09:33:51.975Z,0.80
2022-12-09T09:36:24.140Z,0.80
2022-12-09T09:38:53.974Z,0.80
2022-12-09T09:41:44.551Z,0.90
2022-12-09T09:44:34.686Z,0.90
2022-12-09T09:47:10.021Z,0.90
2022-12-09T09:49:53.752Z,0.90
2022-12-09T09:52:26.261Z,0.90
2022-12-09T09:54:53.345Z,0.90
2022-12-09T09:57:37.269Z,0.90
2022-12-09T10:00:27.859Z,0.90
2022-12-09T10:03:00.081Z,1.00
2022-12-09T10:06:00.784Z,1.00
2022-12-09T10:09:09.364Z,1.10
2022-12-09T10:11:57.595Z,1.00
2022-12-09T10:14:37.197Z,1.00
2022-12-09T10:17:25.362Z,1.00
2022-12-09T10:20:17.397Z,0.90
2022-12-09T10:22:48.246Z,0.90
2022-12-09T10:25:29.133Z,0.90
2022-12-09T10:28:05.155Z,1.00
2022-12-09T10:30:39.901Z,1.00
2022-12-09T10:33:13.901Z,1.00
2022-12-09T10:35:41.803Z,1.00
2022-12-09T10:38:17.578Z,1.10
2022-12-09T10:40:49.019Z,1.00
2022-12-09T10:43:38.868Z,1.10
2022-12-09T10:46:18.821Z,1.10
2022-12-09T10:48:50.185Z,1.10
2022-12-09T10:51:27.018Z,1.20
2022-12-09T10:53:58.940Z,1.10
2022-12-09T10:56:27.469Z,1.10
2022-12-09T10:59:24.220Z,1.00
2022-12-09T11:01:54.815Z,1.00
2022-12-09T11:04:28.131Z,1.00
2022-12-09T11:07:05.197Z,1.00
2022-12-09T11:09:35.552Z,0.90
2022-12-09T11:12:05.676Z,0.90
2022-12-09T11:14:41.416Z,0.90
2022-12-09T11:17:30.783Z,0.90
2022-12-09T11:20:07.982Z,0.90
2022-12-09T11:22:40.317Z,0.80
2022-12-09T11:25:28.766Z,0.90
2022-12-09T11:28:02.769Z,0.90
2022-12-09T11:31:12.063Z,0.90
2022-12-09T11:33:38.503Z,0.90
2022-12-09T11:36:10.551Z,0.90
2022-12-09T11:38:46.306Z,0.90
2022-12-09T11:41:35.448Z,0.90
2022-12-09T11:44:12.811Z,0.90
2022-12-09T11:46:40.252Z,0.80
2022-12-09T11:49:17.281Z,0.90
2022-12-09T11:51:59.882Z,0.90
2022-12-09T11:54:46.256Z,0.90
2022-12-09T11:57:30.503Z,0.90
2022-12-09T12:00:02.803Z,1.00
2022-12-09T12:02:40.291Z,1.00
2022-12-09T12:05:21.882Z,1.10
2022-12-09T12:08:01.189Z,1.10
2022-12-09T12:10:35.540Z,1.10
2022-12-09T12:13:22.785Z,1.00
2022-12-09T12:16:00.468Z,1.00
2022-12-09T12:18:31.143Z,1.00
2022-12-09T12:21:56.509Z,1.00
2022-12-09T12:24:32.273Z,1.00
2022-12-09T12:26:59.050Z,1.00
2022-12-09T12:29:45.420Z,1.00
2022-12-09T12:32:30.913Z,1.10
2022-12-09T12:35:03.914Z,1.10
2022-12-09T12:37:59.496Z,1.00
2022-12-09T12:41:01.568Z,1.10
2022-12-09T12:43:58.933Z,1.10
2022-12-09T12:46:42.359Z,1.10
2022-12-09T12:49:37.778Z,1.10
2022-12-09T12:56:00.073Z,1.10
2022-12-09T12:58:36.020Z,1.10
2022-12-09T13:01:29.998Z,1.00
2022-12-09T13:04:01.917Z,1.00
2022-12-09T13:06:38.367Z,1.00
2022-12-09T13:09:12.941Z,1.00
2022-12-09T13:12:05.458Z,1.00
2022-12-09T13:14:53.275Z,0.90
2022-12-09T13:17:26.991Z,0.90
2022-12-09T13:19:58.485Z,1.00
2022-12-09T13:22:31.766Z,1.10
2022-12-09T13:25:18.508Z,1.10
2022-12-09T13:27:59.718Z,1.10
2022-12-09T13:30:52.568Z,1.10
2022-12-09T13:33:42.184Z,1.10
2022-12-09T13:36:46.288Z,1.00
2022-12-09T13:39:34.092Z,1.00
2022-12-09T13:42:36.163Z,1.00
2022-12-09T13:45:06.784Z,0.90
2022-12-09T13:47:36.987Z,0.90
2022-12-09T13:50:08.202Z,1.00
2022-12-09T13:52:56.634Z,1.00
2022-12-09T13:55:33.949Z,1.00
2022-12-09T13:58:26.092Z,1.00
2022-12-09T14:01:37.737Z,1.00
2022-12-09T14:04:04.644Z,1.00
2022-12-09T14:06:47.602Z,0.90
2022-12-09T14:09:23.804Z,1.00
2022-12-09T14:11:55.813Z,1.00
2022-12-09T14:14:25.661Z,0.90
2022-12-09T14:16:56.381Z,1.00
2022-12-09T14:19:26.451Z,1.00
2022-12-09T14:22:24.315Z,0.90
2022-12-09T14:25:25.925Z,0.90
2022-12-09T14:28:13.833Z,0.90
2022-12-09T14:30:47.162Z,0.80
2022-12-09T14:33:44.419Z,0.80
2022-12-09T14:36:14.234Z,0.70
2022-12-09T14:39:07.924Z,0.80
2022-12-09T14:41:37.007Z,0.70
2022-12-09T14:44:12.670Z,0.70
2022-12-09T14:46:41.362Z,0.70
2022-12-09T14:49:21.014Z,0.70
2022-12-09T14:51:54.268Z,0.70
2022-12-09T14:54:28.926Z,0.70
2022-12-09T14:56:59.149Z,0.70
2022-12-09T14:59:28.226Z,0.70
2022-12-09T15:01:59.842Z,0.70
2022-12-09T15:04:29.884Z,0.70
2022-12-09T15:07:08.063Z,0.70
2022-12-09T15:09:34.907Z,0.70
2022-12-09T15:12:07.112Z,0.70
2022-12-09T15:14:33.856Z,0.60
2022-12-09T15:17:00.732Z,0.60
2022-12-09T15:22:23.984Z,0.60
2022-12-09T15:24:52.640Z,0.60
2022-12-09T15:27:22.181Z,0.60
2022-12-09T15:29:50.045Z,0.60
2022-12-09T15:32:25.990Z,0.60
2022-12-09T15:34:54.355Z,0.60
2022-12-09T15:37:28.112Z,0.60
2022-12-09T15:40:03.829Z,0.60
2022-12-09T15:42:34.289Z,0.60
2022-12-09T15:45:09.959Z,0.60
2022-12-09T15:47:46.247Z,0.60
2022-12-09T15:50:18.665Z,0.70
2022-12-09T15:52:54.940Z,0.70
2022-12-09T15:55:41.552Z,0.70
2022-12-09T15:58:14.505Z,0.60
2022-12-09T16:00:47.091Z,0.60
2022-12-09T16:03:18.827Z,0.60
2022-12-09T16:05:54.918Z,0.60
2022-12-09T16:08:22.726Z,0.60
2022-12-09T16:10:51.920Z,0.60
2022-12-09T16:13:21.409Z,0.60
2022-12-09T16:15:53.361Z,0.60
2022-12-09T16:18:35.636Z,0.60
2022-12-09T16:21:37.709Z,0.60
2022-12-09T16:24:12.777Z,0.60
2022-12-09T16:26:49.516Z,0.60
2022-12-09T16:29:28.509Z,0.60
2022-12-09T16:32:34.277Z,0.60
2022-12-09T16:35:28.782Z,0.60
2022-12-09T16:37:58.574Z,0.60
2022-12-09T16:40:25.487Z,0.60
2022-12-09T16:43:15.180Z,0.60
2022-12-09T16:45:45.673Z,0.60
2022-12-09T16:48:13.471Z,0.60
2022-12-09T16:50:47.149Z,0.60
2022-12-09T16:53:20.228Z,0.60
2022-12-09T16:55:59.778Z,0.60
2022-12-09T16:58:32.466Z,0.60
2022-12-09T17:01:00.895Z,0.60
2022-12-09T17:03:47.394Z,0.50
2022-12-09T17:06:16.554Z,0.60
2022-12-09T17:08:44.259Z,0.60
2022-12-09T17:11:11.721Z,0.60
2022-12-09T17:13:39.256Z,0.50
2022-12-09T17:16:07.306Z,0.50
2022-12-09T17:18:34.765Z,0.50
2022-12-09T17:21:04.400Z,0.60
2022-12-09T17:23:37.721Z,0.60
2022-12-09T17:26:09.371Z,0.50
2022-12-09T17:28:37.772Z,0.50
2022-12-09T17:31:13.201Z,0.60
2022-12-09T17:33:40.011Z,0.60
2022-12-09T17:36:07.566Z,0.60
2022-12-09T17:38:34.620Z,0.60
2022-12-09T17:41:06.927Z,0.60
2022-12-09T17:43:34.390Z,0.60
2022-12-09T17:46:03.013Z,0.60
2022-12-09T17:48:31.661Z,0.60
2022-12-09T17:50:58.527Z,0.60
2022-12-09T17:53:25.460Z,0.60
2022-12-09T17:55:52.245Z,0.60
2022-12-09T17:58:19.050Z,0.60
2022-12-09T18:00:47.889Z,0.60
2022-12-09T18:03:27.379Z,0.60
2022-12-09T18:06:00.268Z,0.60
2022-12-09T18:08:29.729Z,0.60
2022-12-09T18:10:56.839Z,0.60
2022-12-09T18:13:23.673Z,0.60
2022-12-09T18:15:54.175Z,0.60
2022-12-09T18:18:21.805Z,0.60
2022-12-09T18:20:48.611Z,0.60
2022-12-09T18:23:15.490Z,0.60
2022-12-09T18:25:42.823Z,0.60
2022-12-09T18:28:09.719Z,0.60
2022-12-09T18:30:39.659Z,0.70
2022-12-09T18:33:06.690Z,0.70
2022-12-09T18:35:33.788Z,0.70
2022-12-09T18:38:09.601Z,0.70
2022-12-09T18:41:00.872Z,0.70
2022-12-09T18:43:33.437Z,0.70
2022-12-09T18:46:09.497Z,0.60
2022-12-09T18:48:36.650Z,0.60
2022-12-09T18:51:03.678Z,0.60
2022-12-09T18:53:30.943Z,0.60
2022-12-09T18:55:57.733Z,0.60
2022-12-09T18:58:42.825Z,0.60
2022-12-09T19:01:25.032Z,0.60
2022-12-09T19:03:54.284Z,0.60
2022-12-09T19:06:30.408Z,0.60
2022-12-09T19:09:00.608Z,0.60
2022-12-09T19:11:29.388Z,0.60
2022-12-09T19:13:56.899Z,0.60
2022-12-09T19:16:25.171Z,0.60
2022-12-09T19:18:53.731Z,0.60
2022-12-09T19:21:22.397Z,0.60
2022-12-09T19:23:49.778Z,0.60
2022-12-09T19:26:18.272Z,0.70
2022-12-09T19:28:48.171Z,0.60
2022-12-09T19:31:18.455Z,0.60
2022-12-09T19:33:45.595Z,0.60
2022-12-09T19:36:12.822Z,0.50
2022-12-09T19:38:40.503Z,0.60
2022-12-09T19:41:08.231Z,0.60
2022-12-09T19:43:35.373Z,0.60
2022-12-09T19:46:10.741Z,0.60
2022-12-09T19:48:39.655Z,0.60
2022-12-09T19:51:09.136Z,0.60
2022-12-09T19:53:37.680Z,0.60
2022-12-09T19:56:07.202Z,0.60
2022-12-09T19:58:37.071Z,0.60
2022-12-09T20:01:20.991Z,0.60
2022-12-09T20:03:50.710Z,0.70
2022-12-09T20:06:19.941Z,0.70
2022-12-09T20:08:47.456Z,0.60
2022-12-09T20:11:21.057Z,0.70
2022-12-09T20:13:48.124Z,0.70
2022-12-09T20:16:17.887Z,0.70
2022-12-09T20:18:46.715Z,0.70
2022-12-09T20:21:15.011Z,0.70
2022-12-09T20:23:42.830Z,0.70
2022-12-09T20:26:14.294Z,0.70
2022-12-09T20:28:43.256Z,0.70
2022-12-09T20:31:14.349Z,0.70
2022-12-09T20:33:41.718Z,0.70
2022-12-09T20:36:11.364Z,0.70
2022-12-09T20:38:39.270Z,0.70
2022-12-09T20:41:09.942Z,0.70
2022-12-09T20:43:40.575Z,0.70
2022-12-09T20:46:22.000Z,0.70
2022-12-09T20:48:50.004Z,0.70
2022-12-09T20:51:25.772Z,0.70
2022-12-09T20:53:53.851Z,0.70
2022-12-09T20:56:22.207Z,0.70
2022-12-09T20:58:51.108Z,0.70
2022-12-09T21:01:21.794Z,0.70
2022-12-09T21:03:49.414Z,0.70
2022-12-09T21:06:18.251Z,0.70
2022-12-09T21:08:45.568Z,0.80
2022-12-09T21:11:18.329Z,0.80
2022-12-09T21:13:48.556Z,0.80
2022-12-09T21:16:26.673Z,0.80
2022-12-09T21:18:55.716Z,0.80
2022-12-09T21:21:23.769Z,0.80
2022-12-09T21:23:54.210Z,0.80
2022-12-09T21:26:23.419Z,0.80
2022-12-09T21:28:51.315Z,0.80
2022-12-09T21:31:25.345Z,0.80
2022-12-09T21:33:56.023Z,0.80
2022-12-09T21:36:25.738Z,0.80
2022-12-09T21:38:53.822Z,0.80
2022-12-09T21:41:27.384Z,0.80
2022-12-09T21:43:58.080Z,0.80
2022-12-09T21:46:27.109Z,0.80
2022-12-09T21:49:01.556Z,0.80
2022-12-09T21:51:30.561Z,0.80
2022-12-09T21:53:57.584Z,0.80
2022-12-09T21:56:26.901Z,0.80
2022-12-09T21:58:55.721Z,0.80
2022-12-09T22:01:23.902Z,0.80
2022-12-09T22:03:50.744Z,0.80
2022-12-09T22:06:18.412Z,0.80
2022-12-09T22:08:45.501Z,0.80
2022-12-09T22:11:21.448Z,0.80
2022-12-09T22:13:48.450Z,0.80
2022-12-09T22:16:18.335Z,0.80
2022-12-09T22:18:45.614Z,0.80
2022-12-09T22:21:30.625Z,0.80
2022-12-09T22:23:59.798Z,0.80
2022-12-09T22:26:27.369Z,0.80
2022-12-09T22:28:55.083Z,0.80
2022-12-09T22:31:27.473Z,0.80
2022-12-09T22:33:56.448Z,0.80
2022-12-09T22:36:23.576Z,0.80
2022-12-09T22:38:50.591Z,0.70
2022-12-09T22:41:23.206Z,0.70
2022-12-09T22:43:50.911Z,0.70
2022-12-09T22:46:20.497Z,0.70
2022-12-09T22:48:48.307Z,0.70
2022-12-09T22:51:18.159Z,0.80
2022-12-09T22:53:45.640Z,0.80
2022-12-09T22:56:12.894Z,0.70
2022-12-09T22:58:40.383Z,0.70
2022-12-09T23:01:35.620Z,0.70
2022-12-09T23:04:03.755Z,0.70
2022-12-09T23:06:30.930Z,0.70
2022-12-09T23:08:58.233Z,0.70
2022-12-09T23:11:27.128Z,0.70
2022-12-09T23:13:54.588Z,0.70
2022-12-09T23:16:23.557Z,0.70
2022-12-09T23:18:51.386Z,0.70
2022-12-09T23:21:30.272Z,0.70
2022-12-09T23:24:00.305Z,0.70
2022-12-09T23:26:29.227Z,0.70
2022-12-09T23:28:58.162Z,0.70
2022-12-09T23:31:29.595Z,0.70
2022-12-09T23:33:57.542Z,0.70
2022-12-09T23:36:27.621Z,0.70
2022-12-09T23:38:54.829Z,0.70
2022-12-09T23:41:23.546Z,0.70
2022-12-09T23:43:51.710Z,0.70
2022-12-09T23:46:21.457Z,0.70
2022-12-09T23:48:50.278Z,0.70
2022-12-09T23:51:20.169Z,0.70
2022-12-09T23:53:49.375Z,0.70
2022-12-09T23:56:21.617Z,0.70
2022-12-09T23:58:52.977Z,0.70
